Terminal Aerodrome Forecast
Issued by NWS Sterling, VA

Home | Current Version | Previous Version | Text Only | Print | Product List | Glossary On
Versions: 1 2 3 4 5 6 7 8 9 10 11 12 13 14 15 16 17 18 19 20
059
FTUS41 KLWX 302341
TAFMRB
TAF
KMRB 302341Z 0100/0124 14007KT P6SM SCT040 BKN200
     FM010800 17005KT 4SM BR SCT025 BKN070
     FM011300 19011KT P6SM SCT025 BKN035
     FM012000 18015G24KT P6SM OVC025
     FM012100 18015G24KT P6SM -SHRA VCTS OVC025CB=

USA.gov is the U.S. government's official web portal to all federal, state and local government web resources and services.